Hauptseite
METAR-TAF:

METAR-TAF

Flughäfen :

Flughafen Friedrichshafen

Friedrichshafen, Deutschland

Breite: 47-40N, Länge: 009-31E, Höhe: 416 m

Beobachtung

Neuester Wetterbericht von vor 35 Minuten, um 15:20 UTC
Wind 5 kt aus Nordost
Temperatur 9°C
Luftfeuchtigkeit 71%
Luftdruck 1020 hPa
Sichtweite 10 km oder mehr
Geschlossene Wolkendecke in der Höhe von 3700 ft

METAR: EDNY 281520Z 04005KT 9999 OVC037 09/04 Q1020

Zeit: 16:55 (15:55 UTC)

Prognose

Neuester Wetterbericht von vor 4 Stunden und 55 Minuten, um 11:00 UTC
Gültige Prognose vom 28 um 12 UTC bis 29 um 12 UTC
Wind 4 kt aus Nord/Nordost
Sichtweite 10 km oder mehr
Durchbrochene Bewölkung in der Höhe von 3000 ft
Wahrscheinlichkeit 30% :
Zeitweise
vom 29 um 04 UTC bis 29 um 09 UTC
Sichtweite: 1200 m
Durchbrochene Bewölkung in der Höhe von 700 ft
Nebelschwaden,

TAF: EDNY 281100Z 2812/2912 03004KT 9999 BKN030 PROB30 TEMPO 2904/2909 1200 BCFG BKN007

Wetterbeobachtungen und Prognosen von mehr als 4000 Flughäfen (METAR und TAF Bericht).

Die verfügbaren Stationen werden durch gelbe und rote Markierungen auf der Karte dargestellt.

Führen Sie die Maus auf sie, um den Namen der Station zu sehen.

Darauf klicken, um die Beobachtung von Wetterbeobachtungen und Prognosen zu sehen.

Um die Karte zu ändern : klicken Sie auf den grünen Tasten mit einem schwarzen Kreuz Zum Vergrößern, auf den grünen Button mit einem Gedankenstrich zu verkleinern, oder auf die grünen Pfeile für benachbarte Karten.


METAR-TAF: